Αρχική σελίδα
METAR-TAF:

METAR-TAF

Αεροδρόμια :

Mitiga International Airport

Τρίπολη, Λιβύη

γεωγραφικό πλάτος: 32-54N, γεωγραφικό μήκος: 13-17E, υψόμετρο: 11 μ

Παρών καιρός

Η αναφορά έγινε 18 λεπτά πριν, στις 23:50 UTC
Άνεμος 5 kt από Α
Θερμοκρασία 27°C
Υγρασία 74%
Πίεση 1014 hPa
Ορατότητα: 7000 μ
Καθαρός ουρανός

METAR: HLLM 162350Z 09005KT 7000 SKC 27/22 Q1014

Χρόνος: 02:08 (00:08 UTC)

Πρόγνωση Καιρού

Η αναφορά έγινε 19 ώρες και 8 λεπτά πριν, στις 05:00 UTC
Η πρόγνωση ισχύει από τις 16 στις 06 UTC έως τις 17 στις 06 UTC
Άνεμος 10 kt από Α
Ορατότητα 10 χλμ και άνω
Λίγα νέφη σε ύψος 2500 πόδια
Καθιστάμενος
από 16 στις 10 UTC έως τις 16 στις 12 UTC
Άνεμος 15 kt από Β/BA
Καθιστάμενος
από 17 στις 00 UTC έως τις 17 στις 02 UTC
Άνεμος 10 kt από Α

TAF: HLLM 160500Z 1606/1706 09010KT 9999 FEW025 BECMG 1610/1612 03015KT BECMG 1700/1702 10010KT

Μετεωρολογικές αναφορές και προγνώσεις για περισσότερα από 4000 αεροδρόμια (δελτία METAR και TAF).

Οι διαθέσιμοι σταθμοί απεικονίζονται στο χάρτη με κίτρινες και κόκκινες κουκκίδες.

Μετακινήστε το ποντίκι πάνω από τις κουκκίδες για να δείτε το όνομα του σταθμού.

Στη συνέχεια, κάντε κλικ για να δείτε τις μετεωρολογικές αναφορές και τις προγνώσεις καιρού.

Για να αλλάξετε το χάρτη: κάντε κλικ στα πράσινα κουμπιά με τον μαύρο σταυρό για να ζουμάρετε, στο πράσινο κουμπί με την παύλα για να αφαιρέσετε το ζουμ ή στα πράσινα βέλη για να αντιπαραβάλλετε χάρτες.


METAR-TAF: